sensor_id;sensor_type;location;lat;lon;timestamp;P1;durP1;ratioP1;P2;durP2;ratioP2
44572;SDS011;31762;45.420;10.072;2023-07-31T03:53:53;2.78;;;2.20;;
44572;SDS011;31762;45.420;10.072;2023-07-31T04:52:34;4.35;;;2.67;;
44572;SDS011;31762;45.420;10.072;2023-07-31T05:02:57;2.67;;;2.47;;
44572;SDS011;31762;45.420;10.072;2023-07-31T05:40:17;3.53;;;2.92;;
44572;SDS011;31762;45.420;10.072;2023-07-31T05:45:20;3.10;;;2.80;;
44572;SDS011;31762;45.420;10.072;2023-07-31T05:50:23;2.63;;;2.42;;
44572;SDS011;31762;45.420;10.072;2023-07-31T05:55:25;3.25;;;2.70;;
44572;SDS011;31762;45.420;10.072;2023-07-31T06:00:28;3.00;;;2.60;;
44572;SDS011;31762;45.420;10.072;2023-07-31T06:05:30;2.67;;;2.47;;
44572;SDS011;31762;45.420;10.072;2023-07-31T06:10:33;2.43;;;2.23;;
44572;SDS011;31762;45.420;10.072;2023-07-31T06:15:35;3.15;;;2.83;;
44572;SDS011;31762;45.420;10.072;2023-07-31T06:20:37;3.75;;;2.53;;
44572;SDS011;31762;45.420;10.072;2023-07-31T06:25:39;3.00;;;2.75;;
44572;SDS011;31762;45.420;10.072;2023-07-31T06:30:42;3.60;;;3.10;;
44572;SDS011;31762;45.420;10.072;2023-07-31T06:35:44;3.10;;;2.80;;
44572;SDS011;31762;45.420;10.072;2023-07-31T06:40:46;3.65;;;3.35;;
44572;SDS011;31762;45.420;10.072;2023-07-31T06:45:48;5.17;;;4.23;;
44572;SDS011;31762;45.420;10.072;2023-07-31T06:50:51;3.38;;;3.05;;
44572;SDS011;31762;45.420;10.072;2023-07-31T06:55:53;5.00;;;4.60;;
44572;SDS011;31762;45.420;10.072;2023-07-31T07:00:55;5.20;;;4.78;;
44572;SDS011;31762;45.420;10.072;2023-07-31T07:05:57;4.80;;;4.40;;
44572;SDS011;31762;45.420;10.072;2023-07-31T07:11:00;4.38;;;3.75;;
44572;SDS011;31762;45.420;10.072;2023-07-31T07:16:02;4.63;;;4.22;;
44572;SDS011;31762;45.420;10.072;2023-07-31T07:21:04;4.35;;;3.85;;
44572;SDS011;31762;45.420;10.072;2023-07-31T07:26:07;3.60;;;3.30;;
44572;SDS011;31762;45.420;10.072;2023-07-31T07:31:09;3.47;;;3.10;;
44572;SDS011;31762;45.420;10.072;2023-07-31T07:36:11;3.90;;;3.33;;
44572;SDS011;31762;45.420;10.072;2023-07-31T07:41:13;4.17;;;3.53;;
44572;SDS011;31762;45.420;10.072;2023-07-31T07:46:16;5.00;;;4.60;;
44572;SDS011;31762;45.420;10.072;2023-07-31T07:51:18;4.57;;;4.18;;
44572;SDS011;31762;45.420;10.072;2023-07-31T07:56:20;4.00;;;3.70;;
44572;SDS011;31762;45.420;10.072;2023-07-31T08:01:25;3.77;;;3.43;;
44572;SDS011;31762;45.420;10.072;2023-07-31T08:06:27;3.17;;;2.97;;
44572;SDS011;31762;45.420;10.072;2023-07-31T08:11:30;3.30;;;3.00;;
44572;SDS011;31762;45.420;10.072;2023-07-31T08:16:32;3.80;;;3.50;;
44572;SDS011;31762;45.420;10.072;2023-07-31T08:21:35;3.22;;;2.92;;
44572;SDS011;31762;45.420;10.072;2023-07-31T08:26:37;3.40;;;3.10;;
44572;SDS011;31762;45.420;10.072;2023-07-31T08:31:59;3.13;;;2.83;;
44572;SDS011;31762;45.420;10.072;2023-07-31T08:37:02;3.47;;;3.17;;
44572;SDS011;31762;45.420;10.072;2023-07-31T08:42:07;3.35;;;3.08;;
44572;SDS011;31762;45.420;10.072;2023-07-31T08:47:09;2.97;;;2.60;;
44572;SDS011;31762;45.420;10.072;2023-07-31T08:52:12;2.97;;;2.78;;
44572;SDS011;31762;45.420;10.072;2023-07-31T08:57:14;2.95;;;2.65;;
44572;SDS011;31762;45.420;10.072;2023-07-31T09:02:17;3.27;;;2.50;;
44572;SDS011;31762;45.420;10.072;2023-07-31T09:07:19;2.70;;;2.50;;
44572;SDS011;31762;45.420;10.072;2023-07-31T09:12:22;3.45;;;2.83;;
44572;SDS011;31762;45.420;10.072;2023-07-31T09:17:29;2.60;;;2.40;;
44572;SDS011;31762;45.420;10.072;2023-07-31T09:22:32;4.87;;;2.60;;
44572;SDS011;31762;45.420;10.072;2023-07-31T09:33:10;3.22;;;2.92;;
44572;SDS011;31762;45.420;10.072;2023-07-31T09:38:13;3.90;;;2.40;;
44572;SDS011;31762;45.420;10.072;2023-07-31T09:43:20;2.60;;;2.40;;
44572;SDS011;31762;45.420;10.072;2023-07-31T09:48:23;2.40;;;2.20;;
44572;SDS011;31762;45.420;10.072;2023-07-31T09:53:28;2.75;;;2.55;;
44572;SDS011;31762;45.420;10.072;2023-07-31T09:58:31;2.60;;;2.40;;
44572;SDS011;31762;45.420;10.072;2023-07-31T10:03:36;2.90;;;2.60;;
44572;SDS011;31762;45.420;10.072;2023-07-31T10:08:39;2.40;;;2.20;;
44572;SDS011;31762;45.420;10.072;2023-07-31T10:13:42;3.27;;;2.70;;
44572;SDS011;31762;45.420;10.072;2023-07-31T10:18:44;2.53;;;2.33;;
44572;SDS011;31762;45.420;10.072;2023-07-31T10:23:47;3.33;;;2.40;;
44572;SDS011;31762;45.420;10.072;2023-07-31T10:28:49;2.85;;;2.55;;
44572;SDS011;31762;45.420;10.072;2023-07-31T10:33:52;3.00;;;2.70;;
44572;SDS011;31762;45.420;10.072;2023-07-31T10:38:55;2.60;;;2.40;;
44572;SDS011;31762;45.420;10.072;2023-07-31T10:43:58;3.40;;;2.60;;
44572;SDS011;31762;45.420;10.072;2023-07-31T10:49:01;3.33;;;2.67;;
44572;SDS011;31762;45.420;10.072;2023-07-31T10:54:10;2.73;;;2.53;;
44572;SDS011;31762;45.420;10.072;2023-07-31T10:59:13;3.17;;;2.57;;
44572;SDS011;31762;45.420;10.072;2023-07-31T11:04:15;3.05;;;2.65;;
44572;SDS011;31762;45.420;10.072;2023-07-31T11:09:24;6.00;;;2.40;;
44572;SDS011;31762;45.420;10.072;2023-07-31T11:14:29;3.93;;;2.40;;
44572;SDS011;31762;45.420;10.072;2023-07-31T11:19:31;2.85;;;2.30;;
44572;SDS011;31762;45.420;10.072;2023-07-31T11:24:33;2.40;;;2.20;;
44572;SDS011;31762;45.420;10.072;2023-07-31T11:29:36;2.50;;;2.30;;
44572;SDS011;31762;45.420;10.072;2023-07-31T11:34:51;3.83;;;2.38;;
44572;SDS011;31762;45.420;10.072;2023-07-31T11:40:00;2.08;;;1.88;;
44572;SDS011;31762;45.420;10.072;2023-07-31T11:45:05;1.80;;;1.70;;
44572;SDS011;31762;45.420;10.072;2023-07-31T11:50:10;3.00;;;1.83;;
44572;SDS011;31762;45.420;10.072;2023-07-31T11:55:12;2.13;;;1.92;;
44572;SDS011;31762;45.420;10.072;2023-07-31T12:00:15;3.63;;;2.40;;
44572;SDS011;31762;45.420;10.072;2023-07-31T12:05:17;2.17;;;1.98;;
44572;SDS011;31762;45.420;10.072;2023-07-31T12:15:43;2.75;;;2.10;;
44572;SDS011;31762;45.420;10.072;2023-07-31T12:20:47;2.47;;;2.03;;
44572;SDS011;31762;45.420;10.072;2023-07-31T12:25:54;2.47;;;1.90;;
44572;SDS011;31762;45.420;10.072;2023-07-31T12:31:01;2.08;;;1.88;;
44572;SDS011;31762;45.420;10.072;2023-07-31T12:36:06;2.17;;;1.80;;
44572;SDS011;31762;45.420;10.072;2023-07-31T12:41:08;2.60;;;2.40;;
44572;SDS011;31762;45.420;10.072;2023-07-31T12:46:11;1.70;;;1.60;;
44572;SDS011;31762;45.420;10.072;2023-07-31T12:51:13;2.10;;;1.92;;
44572;SDS011;31762;45.420;10.072;2023-07-31T12:56:15;1.77;;;1.60;;
44572;SDS011;31762;45.420;10.072;2023-07-31T13:01:17;1.75;;;1.65;;
44572;SDS011;31762;45.420;10.072;2023-07-31T13:06:20;1.93;;;1.83;;
44572;SDS011;31762;45.420;10.072;2023-07-31T13:11:22;2.38;;;1.60;;
44572;SDS011;31762;45.420;10.072;2023-07-31T13:16:24;1.92;;;1.63;;
44572;SDS011;31762;45.420;10.072;2023-07-31T13:21:26;1.70;;;1.60;;
44572;SDS011;31762;45.420;10.072;2023-07-31T13:26:29;1.93;;;1.73;;
44572;SDS011;31762;45.420;10.072;2023-07-31T13:31:31;1.83;;;1.70;;
44572;SDS011;31762;45.420;10.072;2023-07-31T13:36:33;1.83;;;1.73;;
44572;SDS011;31762;45.420;10.072;2023-07-31T13:41:36;2.07;;;1.87;;
44572;SDS011;31762;45.420;10.072;2023-07-31T13:46:38;2.00;;;1.80;;
44572;SDS011;31762;45.420;10.072;2023-07-31T13:51:41;2.65;;;1.65;;
44572;SDS011;31762;45.420;10.072;2023-07-31T13:56:43;1.77;;;1.65;;
44572;SDS011;31762;45.420;10.072;2023-07-31T14:01:46;1.98;;;1.77;;
44572;SDS011;31762;45.420;10.072;2023-07-31T14:06:48;2.50;;;1.90;;
44572;SDS011;31762;45.420;10.072;2023-07-31T14:11:51;1.70;;;1.60;;
44572;SDS011;31762;45.420;10.072;2023-07-31T14:16:53;2.53;;;1.57;;
44572;SDS011;31762;45.420;10.072;2023-07-31T14:21:58;1.58;;;1.45;;
44572;SDS011;31762;45.420;10.072;2023-07-31T14:27:11;1.60;;;1.50;;
44572;SDS011;31762;45.420;10.072;2023-07-31T14:32:13;1.93;;;1.73;;
44572;SDS011;31762;45.420;10.072;2023-07-31T14:37:16;1.90;;;1.80;;
44572;SDS011;31762;45.420;10.072;2023-07-31T14:42:18;1.60;;;1.50;;
44572;SDS011;31762;45.420;10.072;2023-07-31T14:47:20;1.83;;;1.73;;
44572;SDS011;31762;45.420;10.072;2023-07-31T14:52:23;2.30;;;1.67;;
44572;SDS011;31762;45.420;10.072;2023-07-31T14:57:25;1.70;;;1.58;;
44572;SDS011;31762;45.420;10.072;2023-07-31T15:02:28;2.13;;;1.80;;
44572;SDS011;31762;45.420;10.072;2023-07-31T15:07:31;1.73;;;1.63;;
44572;SDS011;31762;45.420;10.072;2023-07-31T15:12:33;1.83;;;1.57;;
44572;SDS011;31762;45.420;10.072;2023-07-31T15:17:36;2.00;;;1.52;;
44572;SDS011;31762;45.420;10.072;2023-07-31T15:22:38;1.90;;;1.60;;
44572;SDS011;31762;45.420;10.072;2023-07-31T15:27:40;1.92;;;1.80;;
44572;SDS011;31762;45.420;10.072;2023-07-31T15:32:42;2.03;;;1.83;;
44572;SDS011;31762;45.420;10.072;2023-07-31T15:37:45;1.53;;;1.43;;
44572;SDS011;31762;45.420;10.072;2023-07-31T15:42:47;1.63;;;1.52;;
44572;SDS011;31762;45.420;10.072;2023-07-31T15:47:49;2.03;;;1.48;;
44572;SDS011;31762;45.420;10.072;2023-07-31T15:52:51;2.53;;;1.93;;
44572;SDS011;31762;45.420;10.072;2023-07-31T15:57:54;1.60;;;1.50;;
44572;SDS011;31762;45.420;10.072;2023-07-31T16:02:56;1.67;;;1.58;;
44572;SDS011;31762;45.420;10.072;2023-07-31T16:07:58;2.20;;;1.35;;
44572;SDS011;31762;45.420;10.072;2023-07-31T16:13:00;2.67;;;1.83;;
44572;SDS011;31762;45.420;10.072;2023-07-31T16:18:03;1.70;;;1.60;;
44572;SDS011;31762;45.420;10.072;2023-07-31T16:23:05;2.40;;;1.70;;
44572;SDS011;31762;45.420;10.072;2023-07-31T16:28:07;2.03;;;1.83;;
44572;SDS011;31762;45.420;10.072;2023-07-31T16:33:10;1.60;;;1.50;;
44572;SDS011;31762;45.420;10.072;2023-07-31T16:38:12;2.50;;;1.77;;
44572;SDS011;31762;45.420;10.072;2023-07-31T16:43:14;2.40;;;1.70;;
44572;SDS011;31762;45.420;10.072;2023-07-31T16:48:16;2.45;;;1.60;;
44572;SDS011;31762;45.420;10.072;2023-07-31T16:53:18;1.47;;;1.37;;
44572;SDS011;31762;45.420;10.072;2023-07-31T16:58:21;1.90;;;1.47;;
44572;SDS011;31762;45.420;10.072;2023-07-31T17:03:23;1.70;;;1.60;;
44572;SDS011;31762;45.420;10.072;2023-07-31T17:08:25;1.80;;;1.70;;
44572;SDS011;31762;45.420;10.072;2023-07-31T17:13:27;2.15;;;1.90;;
44572;SDS011;31762;45.420;10.072;2023-07-31T17:18:30;2.40;;;1.65;;
44572;SDS011;31762;45.420;10.072;2023-07-31T17:23:32;1.60;;;1.50;;
44572;SDS011;31762;45.420;10.072;2023-07-31T17:28:34;1.65;;;1.50;;
44572;SDS011;31762;45.420;10.072;2023-07-31T17:33:36;2.00;;;1.80;;
44572;SDS011;31762;45.420;10.072;2023-07-31T17:38:39;1.70;;;1.60;;
44572;SDS011;31762;45.420;10.072;2023-07-31T17:43:41;1.88;;;1.65;;
44572;SDS011;31762;45.420;10.072;2023-07-31T17:48:43;1.95;;;1.70;;
44572;SDS011;31762;45.420;10.072;2023-07-31T17:53:46;2.17;;;1.98;;
44572;SDS011;31762;45.420;10.072;2023-07-31T17:58:48;1.95;;;1.75;;
44572;SDS011;31762;45.420;10.072;2023-07-31T18:03:50;4.82;;;1.80;;
44572;SDS011;31762;45.420;10.072;2023-07-31T18:08:53;1.90;;;1.70;;
44572;SDS011;31762;45.420;10.072;2023-07-31T18:13:55;2.00;;;1.80;;
44572;SDS011;31762;45.420;10.072;2023-07-31T18:18:57;1.92;;;1.83;;
44572;SDS011;31762;45.420;10.072;2023-07-31T18:24:00;2.03;;;1.83;;
44572;SDS011;31762;45.420;10.072;2023-07-31T18:29:02;2.53;;;1.58;;
44572;SDS011;31762;45.420;10.072;2023-07-31T18:34:04;2.08;;;1.65;;
44572;SDS011;31762;45.420;10.072;2023-07-31T18:39:07;1.95;;;1.80;;
44572;SDS011;31762;45.420;10.072;2023-07-31T18:44:09;1.60;;;1.50;;
44572;SDS011;31762;45.420;10.072;2023-07-31T18:49:11;2.22;;;1.90;;
44572;SDS011;31762;45.420;10.072;2023-07-31T18:54:13;4.03;;;1.85;;
44572;SDS011;31762;45.420;10.072;2023-07-31T18:59:16;2.10;;;1.90;;
44572;SDS011;31762;45.420;10.072;2023-07-31T19:04:18;2.23;;;1.70;;
44572;SDS011;31762;45.420;10.072;2023-07-31T19:09:30;2.08;;;1.77;;
44572;SDS011;31762;45.420;10.072;2023-07-31T19:14:33;2.58;;;1.67;;
44572;SDS011;31762;45.420;10.072;2023-07-31T19:19:35;2.25;;;1.77;;
44572;SDS011;31762;45.420;10.072;2023-07-31T19:24:38;1.85;;;1.55;;
44572;SDS011;31762;45.420;10.072;2023-07-31T19:29:42;2.70;;;1.70;;
44572;SDS011;31762;45.420;10.072;2023-07-31T19:34:45;1.95;;;1.75;;
44572;SDS011;31762;45.420;10.072;2023-07-31T19:39:47;2.35;;;1.63;;
44572;SDS011;31762;45.420;10.072;2023-07-31T19:44:49;2.78;;;1.90;;
44572;SDS011;31762;45.420;10.072;2023-07-31T19:49:51;3.33;;;1.70;;
44572;SDS011;31762;45.420;10.072;2023-07-31T19:54:53;1.45;;;1.35;;
44572;SDS011;31762;45.420;10.072;2023-07-31T19:59:55;3.20;;;2.10;;
44572;SDS011;31762;45.420;10.072;2023-07-31T20:04:58;1.98;;;1.70;;
44572;SDS011;31762;45.420;10.072;2023-07-31T20:10:00;2.53;;;1.87;;
44572;SDS011;31762;45.420;10.072;2023-07-31T20:15:02;2.70;;;1.77;;
44572;SDS011;31762;45.420;10.072;2023-07-31T20:20:05;2.33;;;1.80;;
44572;SDS011;31762;45.420;10.072;2023-07-31T20:25:08;1.67;;;1.58;;
44572;SDS011;31762;45.420;10.072;2023-07-31T20:30:10;2.75;;;2.00;;
44572;SDS011;31762;45.420;10.072;2023-07-31T20:35:12;2.40;;;1.98;;
44572;SDS011;31762;45.420;10.072;2023-07-31T20:40:15;2.30;;;1.70;;
44572;SDS011;31762;45.420;10.072;2023-07-31T20:45:17;2.92;;;2.05;;
44572;SDS011;31762;45.420;10.072;2023-07-31T20:50:20;2.67;;;1.98;;
44572;SDS011;31762;45.420;10.072;2023-07-31T20:55:22;2.33;;;1.90;;
44572;SDS011;31762;45.420;10.072;2023-07-31T21:00:24;3.08;;;2.08;;
44572;SDS011;31762;45.420;10.072;2023-07-31T21:05:27;2.42;;;1.98;;
44572;SDS011;31762;45.420;10.072;2023-07-31T21:10:29;3.07;;;2.17;;
44572;SDS011;31762;45.420;10.072;2023-07-31T21:15:31;2.38;;;2.10;;
44572;SDS011;31762;45.420;10.072;2023-07-31T21:20:34;2.30;;;2.10;;
44572;SDS011;31762;45.420;10.072;2023-07-31T21:25:36;3.37;;;2.53;;
44572;SDS011;31762;45.420;10.072;2023-07-31T21:30:38;3.28;;;2.85;;
44572;SDS011;31762;45.420;10.072;2023-07-31T21:35:40;3.17;;;2.47;;
44572;SDS011;31762;45.420;10.072;2023-07-31T21:40:43;3.03;;;2.72;;
44572;SDS011;31762;45.420;10.072;2023-07-31T21:45:45;3.83;;;2.40;;
44572;SDS011;31762;45.420;10.072;2023-07-31T21:50:47;3.97;;;2.53;;
44572;SDS011;31762;45.420;10.072;2023-07-31T21:55:50;3.65;;;2.30;;
44572;SDS011;31762;45.420;10.072;2023-07-31T22:00:52;3.30;;;2.90;;
44572;SDS011;31762;45.420;10.072;2023-07-31T22:05:54;3.30;;;2.65;;
44572;SDS011;31762;45.420;10.072;2023-07-31T22:10:56;3.65;;;2.47;;
44572;SDS011;31762;45.420;10.072;2023-07-31T22:15:59;3.00;;;2.70;;
44572;SDS011;31762;45.420;10.072;2023-07-31T22:21:01;3.95;;;2.60;;
44572;SDS011;31762;45.420;10.072;2023-07-31T22:26:03;5.53;;;2.95;;
44572;SDS011;31762;45.420;10.072;2023-07-31T22:31:06;3.20;;;2.23;;
44572;SDS011;31762;45.420;10.072;2023-07-31T22:36:08;3.08;;;2.38;;
44572;SDS011;31762;45.420;10.072;2023-07-31T22:41:10;2.10;;;1.67;;
44572;SDS011;31762;45.420;10.072;2023-07-31T22:46:12;3.37;;;2.10;;
44572;SDS011;31762;45.420;10.072;2023-07-31T22:51:15;2.45;;;2.25;;
44572;SDS011;31762;45.420;10.072;2023-07-31T22:56:17;2.65;;;1.90;;
44572;SDS011;31762;45.420;10.072;2023-07-31T23:01:19;2.85;;;1.92;;
44572;SDS011;31762;45.420;10.072;2023-07-31T23:06:22;2.35;;;1.85;;
44572;SDS011;31762;45.420;10.072;2023-07-31T23:11:24;2.60;;;1.97;;
44572;SDS011;31762;45.420;10.072;2023-07-31T23:16:26;3.40;;;1.87;;
44572;SDS011;31762;45.420;10.072;2023-07-31T23:21:29;2.08;;;1.88;;
44572;SDS011;31762;45.420;10.072;2023-07-31T23:26:31;3.72;;;1.90;;
44572;SDS011;31762;45.420;10.072;2023-07-31T23:31:33;2.50;;;1.80;;
44572;SDS011;31762;45.420;10.072;2023-07-31T23:36:36;2.50;;;1.63;;
44572;SDS011;31762;45.420;10.072;2023-07-31T23:41:38;1.97;;;1.77;;
44572;SDS011;31762;45.420;10.072;2023-07-31T23:46:41;2.20;;;2.00;;
44572;SDS011;31762;45.420;10.072;2023-07-31T23:51:43;3.30;;;1.90;;
44572;SDS011;31762;45.420;10.072;2023-07-31T23:56:45;2.30;;;1.80;;
